Time;durP1;ratioP1;P1;durP2;ratioP2;P2;SDS_P1;SDS_P2;PMS_P1;PMS_P2;Temp;Humidity;BMP_temperature;BMP_pressure;BME280_temperature;BME280_humidity;BME280_pressure;Samples;Min_cycle;Max_cycle;Signal;HPM_P1;HPM_P2
2022/10/18 00:01:52;;;;;;;9.15;5.15;;;;;;;;;;5078152;28;20359;-85
2022/10/18 00:04:17;;;;;;;7.82;4.85;;;13.00;99.90;;;;;;5078829;28;20190;-84
2022/10/18 00:06:44;;;;;;;12.20;5.40;;;;;;;;;;5061496;28;20573;-85
2022/10/18 00:09:09;;;;;;;9.73;4.57;;;13.20;99.90;;;;;;5078144;28;20179;-84
2022/10/18 00:11:35;;;;;;;9.75;5.53;;;;;;;;;;5077550;28;20184;-85
2022/10/18 00:14:01;;;;;;;11.07;5.03;;;13.10;99.90;;;;;;5079904;28;20213;-84
2022/10/18 00:16:27;;;;;;;8.55;4.78;;;;;;;;;;5098577;28;20233;-84
2022/10/18 00:18:53;;;;;;;9.95;5.05;;;;;;;;;;5078839;28;20214;-84
2022/10/18 00:21:21;;;;;;;8.73;4.72;;;12.80;99.90;;;;;;5096000;28;20185;-84
2022/10/18 00:23:48;;;;;;;10.95;5.47;;;12.80;99.90;;;;;;5078132;28;20276;-88
2022/10/18 00:26:17;;;;;;;8.77;4.72;;;12.70;99.90;;;;;;5077870;28;20553;-85
2022/10/18 00:28:43;;;;;;;10.25;5.10;;;12.90;99.90;;;;;;5096444;28;20179;-85
2022/10/18 00:31:16;;;;;;;7.10;4.13;;;12.80;99.90;;;;;;5096078;28;20190;-85
2022/10/18 00:33:43;;;;;;;7.82;4.32;;;12.90;99.90;;;;;;5095593;28;20517;-84
2022/10/18 00:36:10;;;;;;;9.93;4.90;;;13.00;99.90;;;;;;5095992;28;20202;-84
2022/10/18 00:38:36;;;;;;;8.60;4.35;;;12.70;99.90;;;;;;5078332;28;20650;-84
2022/10/18 00:41:04;;;;;;;9.10;4.78;;;13.00;99.90;;;;;;5095952;28;20249;-84
2022/10/18 00:43:29;;;;;;;9.15;5.03;;;12.80;99.90;;;;;;5096308;28;20174;-84
2022/10/18 00:45:55;;;;;;;7.70;4.72;;;;;;;;;;5060299;28;20247;-84
2022/10/18 00:48:21;;;;;;;6.80;4.32;;;12.30;99.90;;;;;;5061234;28;20482;-84
2022/10/18 00:50:49;;;;;;;8.23;4.40;;;12.70;99.90;;;;;;5077806;28;20170;-84
2022/10/18 00:53:17;;;;;;;12.02;5.00;;;12.60;99.90;;;;;;5077510;28;20202;-84
2022/10/18 00:55:43;;;;;;;8.30;4.03;;;12.60;99.90;;;;;;5094676;28;20281;-84
2022/10/18 00:58:11;;;;;;;8.60;4.32;;;13.00;99.90;;;;;;5095555;28;20206;-84
2022/10/18 01:00:39;;;;;;;9.20;4.55;;;12.50;99.90;;;;;;5095035;28;20187;-84
2022/10/18 01:03:05;;;;;;;7.97;4.75;;;12.40;99.90;;;;;;5077184;28;20174;-84
2022/10/18 01:05:31;;;;;;;6.20;3.85;;;12.40;99.90;;;;;;5095652;28;20205;-83
2022/10/18 01:07:57;;;;;;;6.68;3.53;;;;;;;;;;5095583;28;20206;-84
2022/10/18 01:10:36;;;;;;;7.47;4.22;;;11.80;99.90;;;;;;5095633;28;20224;-84
2022/10/18 01:13:33;;;;;;;5.78;4.18;;;12.60;99.90;;;;;;5095221;28;20596;-84
2022/10/18 01:16:19;;;;;;;7.78;4.38;;;12.50;99.90;;;;;;5095300;28;20226;-84
2022/10/18 01:19:09;;;;;;;7.57;3.97;;;12.50;99.90;;;;;;5095874;28;20155;-83
2022/10/18 01:21:45;;;;;;;7.95;4.13;;;12.60;99.90;;;;;;5096720;28;20178;-84
2022/10/18 01:24:32;;;;;;;8.10;4.05;;;12.10;99.90;;;;;;5098419;28;20185;-84
2022/10/18 01:27:20;;;;;;;6.95;4.00;;;12.00;99.90;;;;;;5096855;28;20634;-84
2022/10/18 01:29:58;;;;;;;8.25;3.47;;;;;;;;;;5078858;28;20175;-84
2022/10/18 01:32:39;;;;;;;6.57;3.72;;;12.30;99.90;;;;;;5078509;28;20178;-84
2022/10/18 01:35:15;;;;;;;9.15;4.60;;;12.40;99.90;;;;;;5096314;28;20231;-84
2022/10/18 01:37:45;;;;;;;5.72;4.00;;;12.00;99.90;;;;;;5096281;28;20194;-84
2022/10/18 01:40:13;;;;;;;8.50;4.32;;;12.70;99.90;;;;;;5095810;28;20175;-84
2022/10/18 01:42:39;;;;;;;8.98;4.90;;;12.30;99.90;;;;;;5095838;28;20167;-84
2022/10/18 01:45:06;;;;;;;10.65;3.30;;;12.00;99.90;;;;;;5095200;28;20698;-84
2022/10/18 01:47:33;;;;;;;8.75;4.00;;;12.50;99.90;;;;;;5060143;28;20197;-83
2022/10/18 01:50:00;;;;;;;7.18;4.57;;;;;;;;;;5076793;28;20174;-86
2022/10/18 01:52:25;;;;;;;7.53;3.95;;;12.40;99.90;;;;;;5094917;28;20212;-83
2022/10/18 01:54:52;;;;;;;5.50;4.35;;;;;;;;;;5059804;28;20327;-83
2022/10/18 01:57:26;;;;;;;9.52;4.35;;;12.60;99.90;;;;;;5076424;28;20569;-83
2022/10/18 02:00:03;;;;;;;6.80;3.90;;;12.20;99.90;;;;;;5076616;28;20179;-83
2022/10/18 02:03:17;;;;;;;7.68;4.63;;;12.20;99.90;;;;;;5094859;28;20159;-83
2022/10/18 02:05:52;;;;;;;6.47;4.10;;;12.20;99.90;;;;;;5072124;28;20190;-83
2022/10/18 02:08:33;;;;;;;8.32;3.85;;;12.00;99.90;;;;;;5076496;28;20223;-84
2022/10/18 02:11:03;;;;;;;6.88;3.80;;;12.20;99.90;;;;;;5095066;28;20175;-83
2022/10/18 02:13:40;;;;;;;12.77;4.13;;;12.10;99.90;;;;;;5094617;28;20173;-84
2022/10/18 02:16:16;;;;;;;13.13;4.60;;;12.30;99.90;;;;;;5094359;28;20647;-84
2022/10/18 02:18:51;;;;;;;4.93;3.75;;;11.70;99.90;;;;;;5076676;28;20336;-84
2022/10/18 02:21:18;;;;;;;9.38;4.25;;;11.70;99.90;;;;;;5076320;28;20170;-83
2022/10/18 02:23:45;;;;;;;10.95;5.10;;;12.40;99.90;;;;;;5076612;28;20175;-83
2022/10/18 02:26:13;;;;;;;13.32;3.65;;;11.90;99.90;;;;;;5096216;28;20622;-83
2022/10/18 02:28:39;;;;;;;9.27;3.83;;;12.20;99.90;;;;;;5096373;28;20170;-83
2022/10/18 02:31:26;;;;;;;10.82;5.40;;;11.90;99.90;;;;;;5096552;28;20179;-85
2022/10/18 02:34:18;;;;;;;7.05;4.32;;;12.30;99.90;;;;;;5101907;28;20182;-84
2022/10/18 02:36:49;;;;;;;9.45;4.90;;;11.60;99.90;;;;;;5101028;28;20201;-83
2022/10/18 02:39:26;;;;;;;7.50;4.25;;;11.90;99.90;;;;;;5100915;28;20177;-83
2022/10/18 02:41:53;;;;;;;8.40;4.75;;;11.90;99.90;;;;;;5101182;27;20166;-83
2022/10/18 02:44:18;;;;;;;6.57;3.75;;;11.60;99.90;;;;;;5093932;28;20182;-84
2022/10/18 02:46:45;;;;;;;8.23;4.40;;;11.80;99.90;;;;;;5099912;28;20177;-84
2022/10/18 02:49:11;;;;;;;6.75;3.70;;;12.00;99.90;;;;;;5101715;28;20190;-89
2022/10/18 02:51:37;;;;;;;13.30;4.03;;;;;;;;;;5118436;27;20212;-80
2022/10/18 02:54:03;;;;;;;6.70;4.32;;;;;;;;;;5118626;28;20214;-80
2022/10/18 02:56:29;;;;;;;6.18;4.35;;;;;;;;;;5118015;27;20208;-85
2022/10/18 02:58:54;;;;;;;6.40;3.58;;;12.10;99.90;;;;;;5085479;28;20163;-83
2022/10/18 03:01:20;;;;;;;10.48;4.32;;;11.30;99.90;;;;;;5076676;28;20683;-84
2022/10/18 03:03:46;;;;;;;5.57;3.92;;;;;;;;;;5077624;28;20190;-83
2022/10/18 03:06:12;;;;;;;6.82;4.03;;;11.70;99.90;;;;;;5076596;28;20178;-84
2022/10/18 03:08:38;;;;;;;6.35;4.03;;;;;;;;;;5094723;28;20638;-84
2022/10/18 03:11:04;;;;;;;6.93;3.38;;;12.00;99.90;;;;;;5094683;28;20193;-85
2022/10/18 03:13:30;;;;;;;7.70;4.05;;;;;;;;;;5075991;28;20178;-84
2022/10/18 03:15:55;;;;;;;6.43;3.83;;;12.00;99.90;;;;;;5076776;28;20780;-82
2022/10/18 03:18:21;;;;;;;7.90;4.22;;;;;;;;;;5076137;28;20182;-83
2022/10/18 03:20:47;;;;;;;9.45;3.78;;;;;;;;;;5094533;28;20235;-84
2022/10/18 03:23:13;;;;;;;6.85;4.00;;;11.40;99.90;;;;;;5093990;28;20175;-84
2022/10/18 03:25:39;;;;;;;7.25;3.72;;;;;;;;;;5060105;28;20182;-84
2022/10/18 03:28:04;;;;;;;11.70;4.43;;;12.00;99.90;;;;;;5094815;28;20162;-84
2022/10/18 03:30:30;;;;;;;8.60;4.75;;;11.80;99.90;;;;;;5076271;28;20186;-84
2022/10/18 03:32:56;;;;;;;9.15;3.72;;;11.30;99.90;;;;;;5059999;28;20182;-84
2022/10/18 03:35:22;;;;;;;7.45;4.05;;;;;;;;;;5075665;28;20179;-84
2022/10/18 03:37:48;;;;;;;11.85;4.07;;;11.50;99.90;;;;;;5075992;28;20210;-84
2022/10/18 03:40:14;;;;;;;11.65;4.25;;;;;;;;;;5075638;28;20276;-88
2022/10/18 03:42:40;;;;;;;5.50;3.88;;;;;;;;;;5075379;28;20662;-84
2022/10/18 03:45:06;;;;;;;5.15;3.67;;;11.10;99.90;;;;;;5074730;28;20186;-84
2022/10/18 03:47:32;;;;;;;5.80;4.03;;;11.30;99.90;;;;;;5092673;28;20647;-84
2022/10/18 03:49:58;;;;;;;6.45;3.55;;;;;;;;;;5075125;28;20189;-84
2022/10/18 03:52:25;;;;;;;5.85;3.65;;;11.40;99.90;;;;;;5093334;28;20623;-85
2022/10/18 03:54:50;;;;;;;5.55;3.30;;;11.30;99.90;;;;;;5075319;28;20246;-84
2022/10/18 03:57:16;;;;;;;6.95;3.47;;;;;;;;;;5092641;28;20206;-88
2022/10/18 03:59:42;;;;;;;5.07;3.60;;;11.10;99.90;;;;;;5075036;28;20190;-83
2022/10/18 04:02:08;;;;;;;7.10;3.83;;;;;;;;;;5058735;28;20201;-84
2022/10/18 04:04:34;;;;;;;6.63;4.03;;;11.00;99.90;;;;;;5092317;28;20171;-84
2022/10/18 04:07:00;;;;;;;5.82;3.55;;;;;;;;;;5058048;28;20658;-84
2022/10/18 04:09:25;;;;;;;6.07;3.00;;;10.70;99.90;;;;;;5092852;28;20166;-85
2022/10/18 04:11:52;;;;;;;8.68;4.30;;;;;;;;;;5092767;28;20711;-85
2022/10/18 04:14:20;;;;;;;6.75;4.40;;;11.10;99.90;;;;;;5074894;28;20193;-84
2022/10/18 04:16:45;;;;;;;7.93;5.50;;;11.40;99.90;;;;;;5075132;28;20261;-85
2022/10/18 04:19:12;;;;;;;7.63;4.35;;;;;;;;;;5077724;28;20648;-85
2022/10/18 04:21:38;;;;;;;4.90;3.70;;;11.30;99.90;;;;;;5062196;28;20611;-84
2022/10/18 04:24:04;;;;;;;7.25;3.83;;;10.80;99.90;;;;;;5074313;28;20179;-85
2022/10/18 04:26:29;;;;;;;6.70;4.20;;;11.40;99.90;;;;;;5054981;28;20195;-85
2022/10/18 04:28:55;;;;;;;7.07;3.83;;;11.20;99.90;;;;;;5055071;28;20241;-85
2022/10/18 04:31:21;;;;;;;7.03;3.95;;;;;;;;;;5044992;28;20263;-88
2022/10/18 04:33:47;;;;;;;6.72;4.28;;;11.00;99.90;;;;;;5060327;28;20627;-84
2022/10/18 04:36:13;;;;;;;7.28;3.97;;;;;;;;;;5074794;28;20214;-84
2022/10/18 04:38:39;;;;;;;4.63;3.03;;;;;;;;;;5060331;28;20182;-86
2022/10/18 04:41:05;;;;;;;5.95;3.38;;;;;;;;;;5076860;28;20669;-86
2022/10/18 04:43:31;;;;;;;9.88;4.80;;;11.20;99.90;;;;;;5094819;28;20194;-85
2022/10/18 04:45:57;;;;;;;8.40;4.82;;;;;;;;;;5076187;28;20190;-87
2022/10/18 04:48:23;;;;;;;13.20;6.18;;;;;;;;;;5076927;28;20226;-88
2022/10/18 04:50:49;;;;;;;9.63;4.50;;;11.20;99.90;;;;;;5075868;28;20183;-85
2022/10/18 04:53:16;;;;;;;5.88;3.33;;;11.10;99.90;;;;;;5093712;28;20202;-86
2022/10/18 04:55:48;;;;;;;5.72;4.50;;;10.70;99.90;;;;;;5078915;28;20291;-85
2022/10/18 04:58:15;;;;;;;5.18;3.22;;;11.10;99.90;;;;;;5080761;28;20355;-86
2022/10/18 05:00:41;;;;;;;5.32;4.05;;;11.00;99.90;;;;;;5095550;28;20602;-86
2022/10/18 05:03:08;;;;;;;7.45;3.75;;;11.00;99.90;;;;;;5074022;28;20178;-86
2022/10/18 05:05:34;;;;;;;10.32;4.32;;;;;;;;;;5094530;28;20179;-87
2022/10/18 05:08:00;;;;;;;8.63;3.78;;;11.40;99.90;;;;;;5077358;28;20182;-86
2022/10/18 05:10:26;;;;;;;6.32;3.58;;;;;;;;;;5095206;28;20174;-88
2022/10/18 05:12:52;;;;;;;5.90;3.50;;;;;;;;;;5095015;28;20191;-86
2022/10/18 05:15:18;;;;;;;7.70;4.03;;;11.50;99.90;;;;;;5077354;28;20532;-87
2022/10/18 05:17:44;;;;;;;13.95;4.55;;;;;;;;;;5076920;28;20209;-86
2022/10/18 05:20:10;;;;;;;5.82;3.45;;;11.60;99.90;;;;;;5060523;28;20198;-86
2022/10/18 05:22:36;;;;;;;7.53;3.85;;;;;;;;;;5060689;28;20182;-86
2022/10/18 05:25:01;;;;;;;5.55;3.28;;;11.20;99.90;;;;;;5060766;28;20536;-86
2022/10/18 05:27:28;;;;;;;6.88;3.72;;;11.50;99.90;;;;;;5094889;28;20186;-88
2022/10/18 05:29:54;;;;;;;8.95;3.95;;;11.50;99.90;;;;;;5077324;28;20167;-86
2022/10/18 05:32:20;;;;;;;6.38;3.83;;;;;;;;;;5095232;28;20193;-87
2022/10/18 05:34:46;;;;;;;6.43;3.53;;;11.40;99.90;;;;;;5059904;28;20315;-85
2022/10/18 05:37:12;;;;;;;6.93;3.35;;;;;;;;;;5060474;28;20289;-84
2022/10/18 05:39:39;;;;;;;8.13;3.80;;;;;;;;;;5096514;28;20185;-84
2022/10/18 05:42:05;;;;;;;6.47;3.92;;;11.90;99.90;;;;;;5076788;28;20281;-85
2022/10/18 05:44:31;;;;;;;7.57;4.18;;;;;;;;;;5043601;28;20266;-87
2022/10/18 05:46:57;;;;;;;6.78;4.28;;;12.40;99.90;;;;;;5094868;28;20197;-86
2022/10/18 05:49:23;;;;;;;7.30;4.38;;;12.30;99.90;;;;;;5078030;28;20187;-85
2022/10/18 05:51:49;;;;;;;7.85;4.85;;;;;;;;;;5094947;28;20179;-85
2022/10/18 05:54:15;;;;;;;8.73;4.45;;;12.40;99.90;;;;;;5075621;28;20610;-86
2022/10/18 05:56:41;;;;;;;8.55;4.70;;;12.60;99.90;;;;;;5091511;28;20206;-85
2022/10/18 05:59:10;;;;;;;12.02;4.85;;;;;;;;;;5094427;28;20189;-85
2022/10/18 06:01:37;;;;;;;7.00;4.13;;;12.00;99.90;;;;;;5076447;28;20568;-84
2022/10/18 06:04:03;;;;;;;7.72;4.03;;;;;;;;;;5060822;28;20197;-88
2022/10/18 06:06:30;;;;;;;13.50;4.20;;;12.40;99.90;;;;;;5077483;28;20571;-86
2022/10/18 06:08:56;;;;;;;11.68;5.35;;;;;;;;;;5057323;28;20283;-86
2022/10/18 06:11:22;;;;;;;9.23;4.50;;;12.40;99.90;;;;;;5093036;28;20183;-85
2022/10/18 06:13:49;;;;;;;12.25;4.72;;;12.40;99.90;;;;;;5076161;28;20179;-86
2022/10/18 06:16:17;;;;;;;8.88;4.43;;;12.80;99.90;;;;;;5094224;28;20210;-86
2022/10/18 06:18:46;;;;;;;11.85;4.43;;;13.10;99.90;;;;;;5077005;28;20182;-85
2022/10/18 06:21:12;;;;;;;5.47;3.38;;;;;;;;;;5068837;28;20171;-86
2022/10/18 06:23:38;;;;;;;7.30;4.40;;;;;;;;;;5080133;28;20631;-86
2022/10/18 06:26:06;;;;;;;9.23;4.88;;;12.60;99.90;;;;;;5083058;28;20220;-86
2022/10/18 06:28:33;;;;;;;8.85;3.80;;;13.00;99.90;;;;;;5095111;28;20259;-86
2022/10/18 06:31:02;;;;;;;8.13;4.30;;;;;;;;;;5108562;27;20159;-89
2022/10/18 06:33:30;;;;;;;8.70;4.65;;;12.90;99.90;;;;;;5098724;28;20178;-88
2022/10/18 06:35:57;;;;;;;13.75;4.10;;;13.10;99.90;;;;;;5067801;28;20689;-86
2022/10/18 06:38:23;;;;;;;8.80;4.75;;;13.50;99.90;;;;;;5070900;28;20199;-85
2022/10/18 06:40:49;;;;;;;11.45;5.15;;;13.10;99.90;;;;;;5074691;28;20203;-85
2022/10/18 06:43:15;;;;;;;6.55;4.20;;;12.80;99.90;;;;;;5051222;28;20283;-85
2022/10/18 06:45:41;;;;;;;9.73;4.75;;;13.10;99.90;;;;;;5076099;28;20269;-85
2022/10/18 06:48:07;;;;;;;7.38;3.80;;;;;;;;;;5094324;28;20659;-85
2022/10/18 06:50:33;;;;;;;5.50;3.75;;;;;;;;;;5076222;28;20401;-85
2022/10/18 06:52:59;;;;;;;13.60;4.57;;;;;;;;;;5075745;28;20216;-85
2022/10/18 06:55:24;;;;;;;9.98;4.60;;;13.40;99.90;;;;;;5058471;28;20238;-84
2022/10/18 06:57:51;;;;;;;8.35;3.85;;;13.40;99.90;;;;;;5075685;28;20220;-85
2022/10/18 07:00:17;;;;;;;8.52;4.20;;;14.00;99.90;;;;;;5094120;28;20182;-85
2022/10/18 07:02:43;;;;;;;8.15;4.38;;;;;;;;;;5059037;28;20228;-85
2022/10/18 07:05:10;;;;;;;25.08;10.43;;;13.40;99.90;;;;;;5076100;28;20186;-85
2022/10/18 07:07:36;;;;;;;8.30;4.13;;;13.50;99.90;;;;;;5094007;28;20190;-86
2022/10/18 07:10:03;;;;;;;8.55;4.53;;;13.70;99.90;;;;;;5093461;28;20209;-86
2022/10/18 07:12:29;;;;;;;7.90;4.25;;;13.50;99.90;;;;;;5093405;28;20190;-86
2022/10/18 07:14:55;;;;;;;6.05;3.42;;;;;;;;;;5075497;28;20646;-86
2022/10/18 07:17:21;;;;;;;10.38;4.63;;;13.60;99.90;;;;;;5075521;28;20203;-85
2022/10/18 07:19:46;;;;;;;7.93;3.80;;;13.60;99.90;;;;;;5058758;28;20178;-87
2022/10/18 07:22:12;;;;;;;8.73;4.03;;;;;;;;;;5075280;28;20178;-85
2022/10/18 07:24:38;;;;;;;7.50;3.63;;;14.00;99.90;;;;;;5075605;28;20182;-86
2022/10/18 07:27:04;;;;;;;10.80;4.07;;;;;;;;;;5042173;28;20530;-88
2022/10/18 07:29:31;;;;;;;8.80;4.50;;;;;;;;;;5075704;28;20209;-84
2022/10/18 07:31:57;;;;;;;6.22;3.92;;;;;;;;;;5093701;28;20270;-85
2022/10/18 07:34:23;;;;;;;8.70;4.50;;;14.10;99.90;;;;;;5075308;28;20643;-86
2022/10/18 07:36:49;;;;;;;8.98;3.45;;;;;;;;;;5075333;28;20256;-86
2022/10/18 07:39:14;;;;;;;7.78;4.53;;;13.90;99.90;;;;;;5093518;28;20194;-86
2022/10/18 07:41:40;;;;;;;9.23;4.72;;;14.20;99.90;;;;;;5075440;28;20171;-87
2022/10/18 07:44:06;;;;;;;7.47;3.92;;;;;;;;;;5058709;28;20266;-86
2022/10/18 07:46:32;;;;;;;7.65;4.43;;;14.60;99.90;;;;;;5093928;28;20185;-86
2022/10/18 07:48:58;;;;;;;15.35;4.70;;;;;;;;;;5075486;28;20187;-87
2022/10/18 07:51:25;;;;;;;9.02;4.45;;;14.50;99.90;;;;;;5093931;28;20166;-87
2022/10/18 07:53:51;;;;;;;7.28;4.63;;;;;;;;;;5075303;28;20177;-87
2022/10/18 07:56:19;;;;;;;8.45;4.53;;;;;;;;;;5075757;28;20358;-88
2022/10/18 07:58:55;;;;;;;8.32;4.68;;;14.60;99.90;;;;;;5074954;28;20190;-86
2022/10/18 08:01:22;;;;;;;7.15;4.10;;;15.00;99.90;;;;;;5075727;28;20183;-86
2022/10/18 08:03:50;;;;;;;9.15;4.50;;;14.90;99.90;;;;;;5057934;28;20175;-87
2022/10/18 08:06:17;;;;;;;5.78;3.58;;;14.80;99.90;;;;;;5076927;28;20239;-86
2022/10/18 08:08:44;;;;;;;7.93;4.35;;;;;;;;;;5078603;28;20267;-86
2022/10/18 08:11:13;;;;;;;7.88;4.40;;;;;;;;;;5077685;28;20273;-86
2022/10/18 08:13:39;;;;;;;6.60;4.00;;;15.20;99.90;;;;;;5098345;28;20171;-87
2022/10/18 08:16:08;;;;;;;10.50;4.15;;;15.00;99.90;;;;;;5079347;28;20206;-88
2022/10/18 08:18:34;;;;;;;8.32;4.32;;;15.10;99.90;;;;;;5079025;28;20178;-86
2022/10/18 08:21:02;;;;;;;8.32;4.78;;;15.10;99.90;;;;;;5096232;28;20175;-86
2022/10/18 08:23:28;;;;;;;7.63;4.43;;;;;;;;;;5078534;28;20265;-87
2022/10/18 08:25:54;;;;;;;12.55;4.78;;;;;;;;;;5061915;28;20210;-87
2022/10/18 08:28:20;;;;;;;10.88;5.25;;;15.40;99.90;;;;;;5079008;28;20508;-87
2022/10/18 08:30:47;;;;;;;7.55;3.95;;;;;;;;;;5078751;28;20187;-86
2022/10/18 08:33:13;;;;;;;13.32;4.85;;;;;;;;;;5096477;28;20185;-87
2022/10/18 08:35:38;;;;;;;8.55;4.45;;;15.30;99.90;;;;;;5078496;28;20174;-87
2022/10/18 08:38:04;;;;;;;6.70;3.92;;;;;;;;;;5045244;28;20190;-88
2022/10/18 08:40:32;;;;;;;7.88;4.03;;;15.40;99.90;;;;;;5097489;28;20179;-87
2022/10/18 08:42:58;;;;;;;10.57;4.75;;;;;;;;;;5050190;28;20178;-87
2022/10/18 08:45:26;;;;;;;7.18;3.88;;;15.50;99.90;;;;;;5081525;28;20175;-87
2022/10/18 08:47:56;;;;;;;8.43;4.40;;;15.20;99.90;;;;;;5100281;28;20171;-87
2022/10/18 08:50:35;;;;;;;6.70;3.72;;;;;;;;;;5087654;27;20166;-87
2022/10/18 08:53:24;;;;;;;7.15;3.63;;;15.70;99.90;;;;;;5103509;27;20174;-94
2022/10/18 08:56:01;;;;;;;10.88;4.63;;;16.10;99.90;;;;;;5103000;28;20327;-87
2022/10/18 08:58:30;;;;;;;8.48;3.70;;;15.70;99.90;;;;;;5103139;27;20155;-86
2022/10/18 09:01:37;;;;;;;6.90;3.33;;;15.90;99.90;;;;;;5110584;27;20174;-92
2022/10/18 09:04:20;;;;;;;10.68;3.83;;;16.20;99.90;;;;;;5101990;28;20330;-87
2022/10/18 09:07:28;;;;;;;11.40;4.07;;;16.20;99.90;;;;;;5117453;27;20158;-87
2022/10/18 09:10:02;;;;;;;6.70;3.63;;;16.30;99.90;;;;;;5102084;27;20241;-90
2022/10/18 09:12:30;;;;;;;5.82;3.63;;;16.40;99.90;;;;;;5102079;27;20159;-89
2022/10/18 09:15:12;;;;;;;7.88;3.22;;;16.30;99.90;;;;;;5099080;28;20228;-88
2022/10/18 09:17:55;;;;;;;7.85;3.50;;;16.60;99.90;;;;;;5074500;28;20242;-89
2022/10/18 09:20:30;;;;;;;8.27;4.05;;;16.80;99.90;;;;;;5082279;28;20209;-90
2022/10/18 09:23:15;;;;;;;9.88;4.47;;;;;;;;;;5091032;28;20219;-87
2022/10/18 09:25:52;;;;;;;5.45;3.13;;;17.10;99.90;;;;;;5092500;28;20167;-89
2022/10/18 09:28:28;;;;;;;5.57;3.58;;;;;;;;;;5096421;28;20635;-89
2022/10/18 09:31:05;;;;;;;5.97;3.72;;;17.50;99.90;;;;;;5077385;28;20682;-88
2022/10/18 09:33:32;;;;;;;5.05;2.53;;;;;;;;;;5075704;28;20628;-88
2022/10/18 09:36:05;;;;;;;6.05;2.88;;;17.70;99.90;;;;;;5078731;28;20210;-88
2022/10/18 09:38:43;;;;;;;6.43;3.10;;;17.80;99.90;;;;;;5070989;28;20170;-89
2022/10/18 09:41:25;;;;;;;4.90;3.10;;;18.00;99.90;;;;;;5097426;28;20179;-88
2022/10/18 09:44:01;;;;;;;7.57;3.00;;;18.00;99.90;;;;;;5097172;28;20242;-85
2022/10/18 09:46:36;;;;;;;5.72;2.95;;;18.10;99.90;;;;;;5100200;28;20186;-89
2022/10/18 09:49:15;;;;;;;4.85;2.70;;;18.20;99.90;;;;;;5106335;28;20165;-88
2022/10/18 09:51:42;;;;;;;6.95;3.00;;;18.10;99.90;;;;;;5076905;28;20171;-89
2022/10/18 09:54:21;;;;;;;3.08;2.28;;;18.40;99.90;;;;;;5059557;28;20722;-87
2022/10/18 09:57:01;;;;;;;8.27;3.63;;;18.20;99.90;;;;;;5076594;28;20277;-88
2022/10/18 09:59:27;;;;;;;6.10;2.65;;;;;;;;;;5077126;28;20197;-89
2022/10/18 10:01:53;;;;;;;4.82;3.03;;;;;;;;;;5094824;28;20224;-91
2022/10/18 10:04:19;;;;;;;4.93;2.67;;;19.40;99.90;;;;;;5078157;28;20189;-88
2022/10/18 10:06:53;;;;;;;6.20;2.55;;;19.50;99.90;;;;;;5082912;28;20205;-89
2022/10/18 10:09:28;;;;;;;5.60;2.33;;;;;;;;;;5085064;27;20237;-88
2022/10/18 10:11:54;;;;;;;5.47;2.38;;;19.30;99.90;;;;;;5100805;27;20170;-89
2022/10/18 10:14:25;;;;;;;5.10;2.40;;;19.20;99.90;;;;;;5112269;27;20183;-89
2022/10/18 10:16:55;;;;;;;4.65;2.22;;;19.50;99.90;;;;;;5077002;28;20277;-89
2022/10/18 10:19:34;;;;;;;4.28;2.85;;;18.90;99.90;;;;;;5058847;28;20543;-88
2022/10/18 10:22:07;;;;;;;4.18;2.65;;;20.10;99.90;;;;;;5074267;28;20652;-88
2022/10/18 10:24:42;;;;;;;5.30;2.50;;;19.90;99.90;;;;;;5073738;28;20199;-89
2022/10/18 10:27:17;;;;;;;3.67;2.50;;;20.10;99.90;;;;;;5067788;28;20213;-89
2022/10/18 10:29:46;;;;;;;4.22;2.85;;;19.80;98.30;;;;;;5076045;28;20174;-88
2022/10/18 10:32:18;;;;;;;9.15;2.53;;;19.80;99.10;;;;;;5077879;28;20643;-88
2022/10/18 10:34:44;;;;;;;8.18;2.78;;;19.80;99.90;;;;;;5058103;28;20190;-88
2022/10/18 10:37:24;;;;;;;4.07;2.78;;;19.80;98.90;;;;;;5058832;28;20194;-90
2022/10/18 10:40:14;;;;;;;4.82;2.88;;;19.60;99.90;;;;;;5076280;28;20183;-88
2022/10/18 10:43:04;;;;;;;6.03;2.63;;;19.90;98.70;;;;;;5075930;28;20622;-84
2022/10/18 10:45:36;;;;;;;5.15;2.83;;;20.00;97.70;;;;;;5093912;28;20186;-87
2022/10/18 10:48:14;;;;;;;4.28;2.60;;;19.90;97.30;;;;;;5094169;28;20174;-89
2022/10/18 10:51:09;;;;;;;4.80;2.70;;;20.10;99.90;;;;;;5075948;28;20194;-89
2022/10/18 10:53:35;;;;;;;7.03;2.53;;;;;;;;;;5075568;28;20252;-88
2022/10/18 10:56:03;;;;;;;6.63;2.70;;;19.50;99.90;;;;;;5087920;28;20229;-88
2022/10/18 10:58:35;;;;;;;2.97;2.28;;;19.90;99.90;;;;;;5073694;28;20167;-88
2022/10/18 11:01:21;;;;;;;5.20;2.92;;;19.90;97.50;;;;;;5055709;28;20259;-88
2022/10/18 11:03:48;;;;;;;5.40;2.60;;;20.00;98.00;;;;;;5074054;28;20198;-88
2022/10/18 11:06:36;;;;;;;6.22;2.47;;;19.50;99.90;;;;;;5055636;28;20194;-89
2022/10/18 11:09:08;;;;;;;7.60;2.50;;;20.00;96.40;;;;;;5073938;28;20627;-88
2022/10/18 11:11:45;;;;;;;4.07;2.58;;;20.00;96.80;;;;;;5055818;28;20632;-89
2022/10/18 11:14:29;;;;;;;3.33;2.33;;;20.10;96.80;;;;;;5073655;28;20159;-89
2022/10/18 11:17:13;;;;;;;5.97;2.58;;;20.20;97.00;;;;;;5055435;28;20215;-89
2022/10/18 11:19:39;;;;;;;5.40;2.90;;;;;;;;;;5055486;28;20175;-87
2022/10/18 11:22:12;;;;;;;5.85;2.72;;;20.40;96.50;;;;;;5073904;28;20174;-87
2022/10/18 11:24:38;;;;;;;7.38;2.83;;;;;;;;;;5073617;28;20167;-87
2022/10/18 11:27:04;;;;;;;3.92;2.67;;;;;;;;;;5055543;28;20190;-88
2022/10/18 11:29:47;;;;;;;5.47;2.20;;;20.60;95.10;;;;;;5073472;28;20695;-88
2022/10/18 11:32:31;;;;;;;4.88;3.10;;;20.20;99.90;;;;;;5056461;28;20194;-87
2022/10/18 11:35:10;;;;;;;5.50;2.55;;;20.10;99.90;;;;;;5073419;28;20187;-88
2022/10/18 11:38:14;;;;;;;3.95;2.35;;;20.70;94.10;;;;;;5073280;28;20202;-90
2022/10/18 11:40:40;;;;;;;3.45;2.72;;;;;;;;;;5074537;28;20186;-89
2022/10/18 11:43:36;;;;;;;3.05;2.17;;;20.60;93.70;;;;;;5059311;28;20623;-89
2022/10/18 11:46:11;;;;;;;5.70;3.00;;;;;;;;;;5059181;28;20183;-89
2022/10/18 11:48:40;;;;;;;4.50;2.63;;;;;;;;;;5059491;28;20175;-89
2022/10/18 11:51:29;;;;;;;4.75;2.42;;;20.90;93.50;;;;;;5059897;28;20183;-89
2022/10/18 11:53:55;;;;;;;3.33;2.17;;;;;;;;;;5059087;28;20183;-89
2022/10/18 11:56:30;;;;;;;5.20;2.83;;;;;;;;;;5063659;28;20211;-88
2022/10/18 11:59:29;;;;;;;5.63;3.28;;;21.40;99.90;;;;;;5061683;28;20328;-89
2022/10/18 12:02:31;;;;;;;5.07;2.88;;;20.70;99.90;;;;;;5064247;28;20187;-88
2022/10/18 12:05:01;;;;;;;4.20;2.72;;;21.50;99.90;;;;;;5079282;28;20240;-89
2022/10/18 12:07:38;;;;;;;5.18;3.03;;;21.30;95.10;;;;;;5061963;28;20571;-89
2022/10/18 12:10:09;;;;;;;4.35;2.78;;;21.30;94.10;;;;;;5078493;28;20167;-88
2022/10/18 12:12:50;;;;;;;4.63;3.05;;;21.20;94.10;;;;;;5079351;28;20191;-88
2022/10/18 12:15:22;;;;;;;3.60;2.53;;;21.60;99.90;;;;;;5060201;28;20178;-87
2022/10/18 12:17:56;;;;;;;8.45;2.78;;;21.10;99.90;;;;;;5079420;28;20234;-88
2022/10/18 12:20:38;;;;;;;6.25;3.13;;;21.30;95.50;;;;;;5078130;28;20162;-88
2022/10/18 12:23:37;;;;;;;4.72;3.08;;;21.40;94.90;;;;;;5060219;28;20179;-88
2022/10/18 12:26:06;;;;;;;6.20;3.17;;;21.90;99.90;;;;;;5061460;28;20175;-88
2022/10/18 12:29:10;;;;;;;11.07;3.70;;;21.40;99.90;;;;;;5059784;28;20260;-86
2022/10/18 12:31:55;;;;;;;5.10;2.97;;;22.00;99.90;;;;;;5061529;28;20181;-88
2022/10/18 12:34:22;;;;;;;4.38;2.75;;;;;;;;;;5061664;28;20179;-88
2022/10/18 12:36:51;;;;;;;6.50;3.30;;;;;;;;;;5060231;28;20210;-89
2022/10/18 12:39:25;;;;;;;4.75;3.05;;;21.70;93.80;;;;;;5086507;28;20178;-90
2022/10/18 12:41:56;;;;;;;5.95;3.53;;;21.60;93.90;;;;;;5097460;28;20186;-90
2022/10/18 12:44:33;;;;;;;4.82;2.92;;;21.60;93.80;;;;;;5081680;28;20179;-89
2022/10/18 12:47:02;;;;;;;5.80;3.67;;;21.50;93.60;;;;;;5078261;28;20534;-91
2022/10/18 12:49:28;;;;;;;5.57;2.97;;;;;;;;;;5077525;28;20181;-89
2022/10/18 12:51:59;;;;;;;3.83;2.60;;;21.80;92.20;;;;;;5077162;28;20175;-88
2022/10/18 12:54:29;;;;;;;4.45;2.65;;;22.10;99.90;;;;;;5078019;28;20222;-89
2022/10/18 12:56:56;;;;;;;6.15;3.20;;;22.20;90.70;;;;;;5078455;28;20205;-88
2022/10/18 12:59:42;;;;;;;5.15;2.50;;;22.50;89.50;;;;;;5096011;28;20193;-88
2022/10/18 13:02:19;;;;;;;4.55;2.45;;;22.80;86.60;;;;;;5096347;28;20254;-89
2022/10/18 13:04:49;;;;;;;6.30;2.95;;;23.20;81.00;;;;;;5095801;28;20607;-89
2022/10/18 13:07:21;;;;;;;9.13;2.33;;;24.10;78.40;;;;;;5078055;28;20239;-89
2022/10/18 13:10:32;;;;;;;4.30;2.88;;;24.40;74.60;;;;;;5095267;28;20554;-89
2022/10/18 13:12:58;;;;;;;6.03;2.40;;;;;;;;;;5032072;28;20186;-91
2022/10/18 13:15:46;;;;;;;4.78;2.42;;;25.20;68.00;;;;;;5078191;28;20179;-89
2022/10/18 13:18:58;;;;;;;6.25;2.97;;;25.10;67.00;;;;;;5077731;28;20195;-89
2022/10/18 13:21:31;;;;;;;6.15;2.50;;;25.00;66.80;;;;;;5006176;28;20656;-92
2022/10/18 13:24:18;;;;;;;5.65;2.42;;;24.40;93.30;;;;;;5070661;28;20179;-89
2022/10/18 13:26:49;;;;;;;5.55;3.13;;;24.10;75.80;;;;;;5075641;28;20171;-88
2022/10/18 13:29:37;;;;;;;3.95;2.35;;;24.50;66.90;;;;;;5078760;28;20206;-89
2022/10/18 13:32:26;;;;;;;3.95;2.33;;;24.40;76.80;;;;;;5081891;28;20217;-89
2022/10/18 13:34:53;;;;;;;4.00;2.67;;;;;;;;;;5094834;28;20165;-89
2022/10/18 13:37:19;;;;;;;4.20;2.80;;;;;;;;;;5095135;28;20202;-88